sensor_id;sensor_type;location;lat;lon;timestamp;P1;durP1;ratioP1;P2;durP2;ratioP2
11305;SDS011;5708;50.660;6.778;2022-09-09T00:04:15;6.15;;;0.98;;
11305;SDS011;5708;50.660;6.778;2022-09-09T00:09:35;6.60;;;1.30;;
11305;SDS011;5708;50.660;6.778;2022-09-09T00:12:12;4.63;;;1.00;;
11305;SDS011;5708;50.660;6.778;2022-09-09T00:14:56;5.10;;;1.00;;
11305;SDS011;5708;50.660;6.778;2022-09-09T00:17:36;2.00;;;0.70;;
11305;SDS011;5708;50.660;6.778;2022-09-09T00:20:14;6.18;;;0.98;;
11305;SDS011;5708;50.660;6.778;2022-09-09T00:22:50;3.25;;;1.13;;
11305;SDS011;5708;50.660;6.778;2022-09-09T00:28:16;4.72;;;1.05;;
11305;SDS011;5708;50.660;6.778;2022-09-09T00:30:43;3.67;;;1.00;;
11305;SDS011;5708;50.660;6.778;2022-09-09T00:33:12;4.30;;;1.00;;
11305;SDS011;5708;50.660;6.778;2022-09-09T00:35:58;4.65;;;0.90;;
11305;SDS011;5708;50.660;6.778;2022-09-09T00:43:33;3.92;;;0.80;;
11305;SDS011;5708;50.660;6.778;2022-09-09T00:48:52;7.75;;;1.23;;
11305;SDS011;5708;50.660;6.778;2022-09-09T00:51:49;5.82;;;1.20;;
11305;SDS011;5708;50.660;6.778;2022-09-09T00:57:32;6.55;;;1.23;;
11305;SDS011;5708;50.660;6.778;2022-09-09T01:05:39;5.05;;;1.05;;
11305;SDS011;5708;50.660;6.778;2022-09-09T01:08:33;6.78;;;1.33;;
11305;SDS011;5708;50.660;6.778;2022-09-09T01:11:04;5.47;;;1.10;;
11305;SDS011;5708;50.660;6.778;2022-09-09T01:13:33;5.65;;;1.50;;
11305;SDS011;5708;50.660;6.778;2022-09-09T01:16:00;5.13;;;0.90;;
11305;SDS011;5708;50.660;6.778;2022-09-09T01:18:32;6.05;;;1.30;;
11305;SDS011;5708;50.660;6.778;2022-09-09T01:23:28;2.65;;;0.93;;
11305;SDS011;5708;50.660;6.778;2022-09-09T01:26:13;6.25;;;1.00;;
11305;SDS011;5708;50.660;6.778;2022-09-09T01:28:43;4.03;;;1.02;;
11305;SDS011;5708;50.660;6.778;2022-09-09T01:31:11;9.30;;;1.42;;
11305;SDS011;5708;50.660;6.778;2022-09-09T01:33:40;4.95;;;1.27;;
11305;SDS011;5708;50.660;6.778;2022-09-09T01:36:26;7.88;;;1.55;;
11305;SDS011;5708;50.660;6.778;2022-09-09T01:38:55;6.72;;;1.10;;
11305;SDS011;5708;50.660;6.778;2022-09-09T01:41:20;4.88;;;1.55;;
11305;SDS011;5708;50.660;6.778;2022-09-09T01:43:46;5.80;;;0.90;;
11305;SDS011;5708;50.660;6.778;2022-09-09T01:46:11;6.00;;;1.25;;
11305;SDS011;5708;50.660;6.778;2022-09-09T01:48:37;5.60;;;1.20;;
11305;SDS011;5708;50.660;6.778;2022-09-09T01:51:03;5.18;;;1.35;;
11305;SDS011;5708;50.660;6.778;2022-09-09T01:53:28;8.15;;;1.30;;
11305;SDS011;5708;50.660;6.778;2022-09-09T01:56:00;4.20;;;1.50;;
11305;SDS011;5708;50.660;6.778;2022-09-09T01:58:37;8.77;;;2.00;;
11305;SDS011;5708;50.660;6.778;2022-09-09T02:04:36;5.35;;;1.48;;
11305;SDS011;5708;50.660;6.778;2022-09-09T02:07:06;6.65;;;1.40;;
11305;SDS011;5708;50.660;6.778;2022-09-09T02:10:53;7.40;;;1.40;;
11305;SDS011;5708;50.660;6.778;2022-09-09T02:13:15;9.52;;;1.63;;
11305;SDS011;5708;50.660;6.778;2022-09-09T02:18:27;10.10;;;1.70;;
11305;SDS011;5708;50.660;6.778;2022-09-09T02:21:05;7.40;;;1.50;;
11305;SDS011;5708;50.660;6.778;2022-09-09T02:23:31;9.32;;;1.65;;
11305;SDS011;5708;50.660;6.778;2022-09-09T02:25:58;6.38;;;1.05;;
11305;SDS011;5708;50.660;6.778;2022-09-09T02:28:24;8.30;;;1.30;;
11305;SDS011;5708;50.660;6.778;2022-09-09T02:30:51;7.30;;;1.35;;
11305;SDS011;5708;50.660;6.778;2022-09-09T02:33:20;7.78;;;1.20;;
11305;SDS011;5708;50.660;6.778;2022-09-09T02:35:49;6.38;;;1.60;;
11305;SDS011;5708;50.660;6.778;2022-09-09T02:38:16;7.70;;;1.63;;
11305;SDS011;5708;50.660;6.778;2022-09-09T02:40:42;9.45;;;1.42;;
11305;SDS011;5708;50.660;6.778;2022-09-09T02:43:07;8.00;;;1.77;;
11305;SDS011;5708;50.660;6.778;2022-09-09T02:45:41;6.00;;;1.38;;
11305;SDS011;5708;50.660;6.778;2022-09-09T02:48:14;10.07;;;1.70;;
11305;SDS011;5708;50.660;6.778;2022-09-09T02:55:47;7.00;;;1.40;;
11305;SDS011;5708;50.660;6.778;2022-09-09T02:58:15;7.60;;;1.20;;
11305;SDS011;5708;50.660;6.778;2022-09-09T03:00:42;6.97;;;1.15;;
11305;SDS011;5708;50.660;6.778;2022-09-09T03:03:08;7.00;;;1.33;;
11305;SDS011;5708;50.660;6.778;2022-09-09T03:05:34;5.82;;;1.20;;
11305;SDS011;5708;50.660;6.778;2022-09-09T03:08:00;5.68;;;1.30;;
11305;SDS011;5708;50.660;6.778;2022-09-09T03:10:27;8.32;;;1.20;;
11305;SDS011;5708;50.660;6.778;2022-09-09T03:12:52;6.32;;;1.25;;
11305;SDS011;5708;50.660;6.778;2022-09-09T03:15:18;5.82;;;1.30;;
11305;SDS011;5708;50.660;6.778;2022-09-09T03:17:43;4.28;;;1.20;;
11305;SDS011;5708;50.660;6.778;2022-09-09T03:20:08;6.28;;;1.30;;
11305;SDS011;5708;50.660;6.778;2022-09-09T03:22:34;4.47;;;1.20;;
11305;SDS011;5708;50.660;6.778;2022-09-09T03:25:00;9.35;;;1.75;;
11305;SDS011;5708;50.660;6.778;2022-09-09T03:27:27;7.32;;;1.95;;
11305;SDS011;5708;50.660;6.778;2022-09-09T03:29:53;10.48;;;1.60;;
11305;SDS011;5708;50.660;6.778;2022-09-09T03:32:19;8.50;;;1.23;;
11305;SDS011;5708;50.660;6.778;2022-09-09T03:34:47;6.03;;;1.40;;
11305;SDS011;5708;50.660;6.778;2022-09-09T03:37:15;8.43;;;1.48;;
11305;SDS011;5708;50.660;6.778;2022-09-09T03:39:42;6.72;;;1.40;;
11305;SDS011;5708;50.660;6.778;2022-09-09T03:42:07;8.88;;;1.50;;
11305;SDS011;5708;50.660;6.778;2022-09-09T03:44:33;5.97;;;1.00;;
11305;SDS011;5708;50.660;6.778;2022-09-09T03:46:58;7.20;;;1.40;;
11305;SDS011;5708;50.660;6.778;2022-09-09T03:49:27;7.15;;;1.30;;
11305;SDS011;5708;50.660;6.778;2022-09-09T03:51:54;7.75;;;1.70;;
11305;SDS011;5708;50.660;6.778;2022-09-09T03:54:21;6.63;;;1.42;;
11305;SDS011;5708;50.660;6.778;2022-09-09T03:56:47;10.43;;;1.63;;
11305;SDS011;5708;50.660;6.778;2022-09-09T03:59:12;6.20;;;1.20;;
11305;SDS011;5708;50.660;6.778;2022-09-09T04:01:39;6.45;;;1.15;;
11305;SDS011;5708;50.660;6.778;2022-09-09T04:04:05;4.72;;;1.00;;
11305;SDS011;5708;50.660;6.778;2022-09-09T04:06:31;8.20;;;1.30;;
11305;SDS011;5708;50.660;6.778;2022-09-09T04:08:56;5.90;;;1.52;;
11305;SDS011;5708;50.660;6.778;2022-09-09T04:11:22;6.05;;;1.13;;
11305;SDS011;5708;50.660;6.778;2022-09-09T04:13:47;4.75;;;1.05;;
11305;SDS011;5708;50.660;6.778;2022-09-09T04:16:14;4.65;;;1.13;;
11305;SDS011;5708;50.660;6.778;2022-09-09T04:18:39;4.13;;;1.17;;
11305;SDS011;5708;50.660;6.778;2022-09-09T04:21:05;5.70;;;1.20;;
11305;SDS011;5708;50.660;6.778;2022-09-09T04:23:32;5.25;;;1.15;;
11305;SDS011;5708;50.660;6.778;2022-09-09T04:25:59;7.05;;;1.23;;
11305;SDS011;5708;50.660;6.778;2022-09-09T04:28:25;4.47;;;1.02;;
11305;SDS011;5708;50.660;6.778;2022-09-09T04:30:52;9.00;;;1.63;;
11305;SDS011;5708;50.660;6.778;2022-09-09T04:33:18;5.97;;;1.20;;
11305;SDS011;5708;50.660;6.778;2022-09-09T04:35:47;5.03;;;1.13;;
11305;SDS011;5708;50.660;6.778;2022-09-09T04:38:15;3.83;;;1.00;;
11305;SDS011;5708;50.660;6.778;2022-09-09T04:40:42;8.40;;;1.15;;
11305;SDS011;5708;50.660;6.778;2022-09-09T04:43:08;3.55;;;0.98;;
11305;SDS011;5708;50.660;6.778;2022-09-09T04:45:34;5.25;;;1.10;;
11305;SDS011;5708;50.660;6.778;2022-09-09T04:48:00;4.28;;;1.13;;
11305;SDS011;5708;50.660;6.778;2022-09-09T04:50:25;4.97;;;1.10;;
11305;SDS011;5708;50.660;6.778;2022-09-09T04:52:51;6.40;;;1.80;;
11305;SDS011;5708;50.660;6.778;2022-09-09T04:55:16;6.47;;;1.42;;
11305;SDS011;5708;50.660;6.778;2022-09-09T04:57:45;6.78;;;1.40;;
11305;SDS011;5708;50.660;6.778;2022-09-09T05:00:10;5.72;;;1.60;;
11305;SDS011;5708;50.660;6.778;2022-09-09T05:02:38;6.40;;;1.17;;
11305;SDS011;5708;50.660;6.778;2022-09-09T05:05:04;5.97;;;1.10;;
11305;SDS011;5708;50.660;6.778;2022-09-09T05:07:30;6.68;;;0.95;;
11305;SDS011;5708;50.660;6.778;2022-09-09T05:09:56;6.65;;;1.27;;
11305;SDS011;5708;50.660;6.778;2022-09-09T05:12:22;7.45;;;1.23;;
11305;SDS011;5708;50.660;6.778;2022-09-09T05:14:48;4.75;;;1.10;;
11305;SDS011;5708;50.660;6.778;2022-09-09T05:17:14;6.43;;;1.40;;
11305;SDS011;5708;50.660;6.778;2022-09-09T05:19:41;6.38;;;1.35;;
11305;SDS011;5708;50.660;6.778;2022-09-09T05:22:06;6.15;;;1.30;;
11305;SDS011;5708;50.660;6.778;2022-09-09T05:24:32;4.72;;;0.95;;
11305;SDS011;5708;50.660;6.778;2022-09-09T05:26:58;8.85;;;1.15;;
11305;SDS011;5708;50.660;6.778;2022-09-09T05:29:24;4.05;;;0.90;;
11305;SDS011;5708;50.660;6.778;2022-09-09T05:31:51;6.20;;;1.30;;
11305;SDS011;5708;50.660;6.778;2022-09-09T05:34:17;5.10;;;1.40;;
11305;SDS011;5708;50.660;6.778;2022-09-09T05:36:42;5.35;;;1.40;;
11305;SDS011;5708;50.660;6.778;2022-09-09T05:39:07;9.30;;;1.63;;
11305;SDS011;5708;50.660;6.778;2022-09-09T05:41:33;9.02;;;1.48;;
11305;SDS011;5708;50.660;6.778;2022-09-09T05:43:59;7.45;;;1.40;;
11305;SDS011;5708;50.660;6.778;2022-09-09T05:46:26;9.52;;;1.60;;
11305;SDS011;5708;50.660;6.778;2022-09-09T05:48:52;10.10;;;2.05;;
11305;SDS011;5708;50.660;6.778;2022-09-09T05:51:19;7.07;;;1.30;;
11305;SDS011;5708;50.660;6.778;2022-09-09T05:53:47;6.63;;;1.38;;
11305;SDS011;5708;50.660;6.778;2022-09-09T05:56:17;9.57;;;1.33;;
11305;SDS011;5708;50.660;6.778;2022-09-09T05:58:43;7.30;;;1.30;;
11305;SDS011;5708;50.660;6.778;2022-09-09T06:01:10;8.05;;;1.23;;
11305;SDS011;5708;50.660;6.778;2022-09-09T06:03:38;9.52;;;1.65;;
11305;SDS011;5708;50.660;6.778;2022-09-09T06:06:05;7.38;;;1.30;;
11305;SDS011;5708;50.660;6.778;2022-09-09T06:08:36;8.13;;;1.65;;
11305;SDS011;5708;50.660;6.778;2022-09-09T06:11:04;8.35;;;1.52;;
11305;SDS011;5708;50.660;6.778;2022-09-09T06:13:31;10.23;;;1.55;;
11305;SDS011;5708;50.660;6.778;2022-09-09T06:15:56;5.68;;;1.45;;
11305;SDS011;5708;50.660;6.778;2022-09-09T06:18:23;6.50;;;1.35;;
11305;SDS011;5708;50.660;6.778;2022-09-09T06:20:55;8.70;;;1.42;;
11305;SDS011;5708;50.660;6.778;2022-09-09T06:23:32;9.38;;;1.60;;
11305;SDS011;5708;50.660;6.778;2022-09-09T06:26:04;9.15;;;1.40;;
11305;SDS011;5708;50.660;6.778;2022-09-09T06:28:31;4.13;;;1.30;;
11305;SDS011;5708;50.660;6.778;2022-09-09T06:31:00;9.82;;;1.90;;
11305;SDS011;5708;50.660;6.778;2022-09-09T06:33:32;8.55;;;1.40;;
11305;SDS011;5708;50.660;6.778;2022-09-09T06:35:59;7.35;;;1.45;;
11305;SDS011;5708;50.660;6.778;2022-09-09T06:38:25;9.00;;;1.30;;
11305;SDS011;5708;50.660;6.778;2022-09-09T06:40:51;4.70;;;1.30;;
11305;SDS011;5708;50.660;6.778;2022-09-09T06:43:21;8.57;;;1.25;;
11305;SDS011;5708;50.660;6.778;2022-09-09T06:48:28;7.20;;;1.73;;
11305;SDS011;5708;50.660;6.778;2022-09-09T06:51:17;7.68;;;1.58;;
11305;SDS011;5708;50.660;6.778;2022-09-09T06:53:43;6.65;;;1.35;;
11305;SDS011;5708;50.660;6.778;2022-09-09T06:58:44;7.95;;;1.60;;
11305;SDS011;5708;50.660;6.778;2022-09-09T07:01:11;9.30;;;1.80;;
11305;SDS011;5708;50.660;6.778;2022-09-09T07:03:41;6.45;;;1.88;;
11305;SDS011;5708;50.660;6.778;2022-09-09T07:06:08;5.53;;;1.60;;
11305;SDS011;5708;50.660;6.778;2022-09-09T07:08:42;7.07;;;1.50;;
11305;SDS011;5708;50.660;6.778;2022-09-09T07:11:08;14.18;;;1.75;;
11305;SDS011;5708;50.660;6.778;2022-09-09T07:13:34;6.70;;;1.58;;
11305;SDS011;5708;50.660;6.778;2022-09-09T07:16:07;11.77;;;1.85;;
11305;SDS011;5708;50.660;6.778;2022-09-09T07:18:34;7.38;;;1.40;;
11305;SDS011;5708;50.660;6.778;2022-09-09T07:21:01;14.18;;;1.60;;
11305;SDS011;5708;50.660;6.778;2022-09-09T07:23:28;10.88;;;1.77;;
11305;SDS011;5708;50.660;6.778;2022-09-09T07:25:54;10.57;;;1.92;;
11305;SDS011;5708;50.660;6.778;2022-09-09T07:28:20;7.93;;;1.77;;
11305;SDS011;5708;50.660;6.778;2022-09-09T07:30:55;12.52;;;1.58;;
11305;SDS011;5708;50.660;6.778;2022-09-09T07:33:22;5.50;;;1.25;;
11305;SDS011;5708;50.660;6.778;2022-09-09T07:35:49;8.85;;;1.65;;
11305;SDS011;5708;50.660;6.778;2022-09-09T07:38:15;12.20;;;1.50;;
11305;SDS011;5708;50.660;6.778;2022-09-09T07:40:40;9.07;;;1.50;;
11305;SDS011;5708;50.660;6.778;2022-09-09T07:43:05;9.07;;;1.65;;
11305;SDS011;5708;50.660;6.778;2022-09-09T07:45:31;9.13;;;1.45;;
11305;SDS011;5708;50.660;6.778;2022-09-09T07:47:58;9.57;;;1.48;;
11305;SDS011;5708;50.660;6.778;2022-09-09T07:50:24;6.78;;;1.08;;
11305;SDS011;5708;50.660;6.778;2022-09-09T07:52:50;7.60;;;1.58;;
11305;SDS011;5708;50.660;6.778;2022-09-09T07:55:17;6.72;;;1.63;;
11305;SDS011;5708;50.660;6.778;2022-09-09T07:57:43;8.43;;;1.45;;
11305;SDS011;5708;50.660;6.778;2022-09-09T08:00:08;7.93;;;1.48;;
11305;SDS011;5708;50.660;6.778;2022-09-09T08:02:35;5.65;;;1.20;;
11305;SDS011;5708;50.660;6.778;2022-09-09T08:05:01;6.15;;;1.20;;
11305;SDS011;5708;50.660;6.778;2022-09-09T08:07:26;6.15;;;1.40;;
11305;SDS011;5708;50.660;6.778;2022-09-09T08:09:52;5.38;;;1.20;;
11305;SDS011;5708;50.660;6.778;2022-09-09T08:12:17;5.00;;;1.20;;
11305;SDS011;5708;50.660;6.778;2022-09-09T08:14:43;5.43;;;1.05;;
11305;SDS011;5708;50.660;6.778;2022-09-09T08:17:08;8.50;;;1.80;;
11305;SDS011;5708;50.660;6.778;2022-09-09T08:19:34;7.70;;;1.10;;
11305;SDS011;5708;50.660;6.778;2022-09-09T08:22:00;5.07;;;0.95;;
11305;SDS011;5708;50.660;6.778;2022-09-09T08:24:26;7.10;;;1.30;;
11305;SDS011;5708;50.660;6.778;2022-09-09T08:26:52;4.40;;;0.98;;
11305;SDS011;5708;50.660;6.778;2022-09-09T08:29:18;5.82;;;1.10;;
11305;SDS011;5708;50.660;6.778;2022-09-09T08:31:54;6.60;;;1.27;;
11305;SDS011;5708;50.660;6.778;2022-09-09T08:34:22;4.35;;;1.08;;
11305;SDS011;5708;50.660;6.778;2022-09-09T08:36:48;4.05;;;1.00;;
11305;SDS011;5708;50.660;6.778;2022-09-09T08:39:15;8.98;;;1.33;;
11305;SDS011;5708;50.660;6.778;2022-09-09T08:52:15;7.32;;;1.77;;
11305;SDS011;5708;50.660;6.778;2022-09-09T08:54:42;3.90;;;1.00;;
11305;SDS011;5708;50.660;6.778;2022-09-09T08:57:11;4.30;;;1.10;;
11305;SDS011;5708;50.660;6.778;2022-09-09T08:59:40;6.53;;;1.48;;
11305;SDS011;5708;50.660;6.778;2022-09-09T09:07:15;5.75;;;0.93;;
11305;SDS011;5708;50.660;6.778;2022-09-09T09:10:10;5.70;;;1.05;;
11305;SDS011;5708;50.660;6.778;2022-09-09T09:12:44;6.65;;;1.27;;
11305;SDS011;5708;50.660;6.778;2022-09-09T09:15:23;5.85;;;1.13;;
11305;SDS011;5708;50.660;6.778;2022-09-09T09:17:49;7.60;;;1.25;;
11305;SDS011;5708;50.660;6.778;2022-09-09T09:20:21;4.78;;;0.85;;
11305;SDS011;5708;50.660;6.778;2022-09-09T09:22:51;4.75;;;1.10;;
11305;SDS011;5708;50.660;6.778;2022-09-09T09:28:07;5.63;;;1.10;;
11305;SDS011;5708;50.660;6.778;2022-09-09T09:30:51;5.47;;;0.90;;
11305;SDS011;5708;50.660;6.778;2022-09-09T09:33:22;4.22;;;1.10;;
11305;SDS011;5708;50.660;6.778;2022-09-09T09:36:06;7.18;;;1.25;;
11305;SDS011;5708;50.660;6.778;2022-09-09T09:38:33;4.80;;;0.90;;
11305;SDS011;5708;50.660;6.778;2022-09-09T09:40:59;3.72;;;0.80;;
11305;SDS011;5708;50.660;6.778;2022-09-09T09:43:26;4.88;;;1.00;;
11305;SDS011;5708;50.660;6.778;2022-09-09T09:45:56;4.47;;;0.98;;
11305;SDS011;5708;50.660;6.778;2022-09-09T09:48:23;5.88;;;1.15;;
11305;SDS011;5708;50.660;6.778;2022-09-09T09:50:55;6.53;;;1.63;;
11305;SDS011;5708;50.660;6.778;2022-09-09T09:53:26;4.70;;;0.88;;
11305;SDS011;5708;50.660;6.778;2022-09-09T09:56:06;7.78;;;1.42;;
11305;SDS011;5708;50.660;6.778;2022-09-09T09:58:48;6.22;;;1.10;;
11305;SDS011;5708;50.660;6.778;2022-09-09T10:01:22;5.00;;;1.10;;
11305;SDS011;5708;50.660;6.778;2022-09-09T10:03:51;5.45;;;1.10;;
11305;SDS011;5708;50.660;6.778;2022-09-09T10:06:17;6.18;;;1.15;;
11305;SDS011;5708;50.660;6.778;2022-09-09T10:08:54;5.97;;;1.15;;
11305;SDS011;5708;50.660;6.778;2022-09-09T10:14:15;4.90;;;1.38;;
11305;SDS011;5708;50.660;6.778;2022-09-09T10:16:57;4.60;;;1.20;;
11305;SDS011;5708;50.660;6.778;2022-09-09T10:19:29;5.00;;;1.00;;
11305;SDS011;5708;50.660;6.778;2022-09-09T10:28:26;4.93;;;0.95;;
11305;SDS011;5708;50.660;6.778;2022-09-09T10:36:30;7.13;;;1.00;;
11305;SDS011;5708;50.660;6.778;2022-09-09T10:39:11;6.90;;;1.02;;
11305;SDS011;5708;50.660;6.778;2022-09-09T10:52:32;6.93;;;1.10;;
11305;SDS011;5708;50.660;6.778;2022-09-09T10:57:42;2.88;;;0.80;;
11305;SDS011;5708;50.660;6.778;2022-09-09T11:02:41;4.03;;;1.10;;
11305;SDS011;5708;50.660;6.778;2022-09-09T11:07:59;4.60;;;1.13;;
11305;SDS011;5708;50.660;6.778;2022-09-09T11:19:09;5.32;;;0.80;;
11305;SDS011;5708;50.660;6.778;2022-09-09T11:21:47;5.40;;;1.10;;
11305;SDS011;5708;50.660;6.778;2022-09-09T11:26:46;4.20;;;0.80;;
11305;SDS011;5708;50.660;6.778;2022-09-09T11:40:28;7.32;;;1.10;;
11305;SDS011;5708;50.660;6.778;2022-09-09T11:45:33;2.78;;;1.00;;
11305;SDS011;5708;50.660;6.778;2022-09-09T11:48:00;5.22;;;0.93;;
11305;SDS011;5708;50.660;6.778;2022-09-09T11:50:36;5.32;;;0.82;;
11305;SDS011;5708;50.660;6.778;2022-09-09T11:55:45;2.17;;;0.50;;
11305;SDS011;5708;50.660;6.778;2022-09-09T12:00:37;5.18;;;0.80;;
11305;SDS011;5708;50.660;6.778;2022-09-09T12:03:05;4.32;;;0.90;;
11305;SDS011;5708;50.660;6.778;2022-09-09T12:05:42;3.30;;;0.70;;
11305;SDS011;5708;50.660;6.778;2022-09-09T12:08:10;3.88;;;0.82;;
11305;SDS011;5708;50.660;6.778;2022-09-09T12:10:40;3.75;;;0.77;;
11305;SDS011;5708;50.660;6.778;2022-09-09T12:13:16;4.97;;;0.90;;
11305;SDS011;5708;50.660;6.778;2022-09-09T12:15:48;3.97;;;0.82;;
11305;SDS011;5708;50.660;6.778;2022-09-09T12:18:20;4.85;;;0.80;;
11305;SDS011;5708;50.660;6.778;2022-09-09T12:21:08;5.60;;;1.00;;
11305;SDS011;5708;50.660;6.778;2022-09-09T12:23:43;3.00;;;0.80;;
11305;SDS011;5708;50.660;6.778;2022-09-09T12:31:42;3.90;;;0.90;;
11305;SDS011;5708;50.660;6.778;2022-09-09T12:34:16;5.50;;;1.02;;
11305;SDS011;5708;50.660;6.778;2022-09-09T12:36:42;4.20;;;0.85;;
11305;SDS011;5708;50.660;6.778;2022-09-09T12:41:59;5.35;;;0.88;;
11305;SDS011;5708;50.660;6.778;2022-09-09T12:44:25;3.03;;;0.70;;
11305;SDS011;5708;50.660;6.778;2022-09-09T12:46:53;2.83;;;0.75;;
11305;SDS011;5708;50.660;6.778;2022-09-09T12:49:35;2.85;;;0.70;;
11305;SDS011;5708;50.660;6.778;2022-09-09T12:52:13;6.80;;;0.77;;
11305;SDS011;5708;50.660;6.778;2022-09-09T12:54:45;4.50;;;0.93;;
11305;SDS011;5708;50.660;6.778;2022-09-09T12:57:16;3.50;;;0.68;;
11305;SDS011;5708;50.660;6.778;2022-09-09T12:59:42;4.72;;;0.82;;
11305;SDS011;5708;50.660;6.778;2022-09-09T13:02:23;4.80;;;0.80;;
11305;SDS011;5708;50.660;6.778;2022-09-09T13:04:50;3.60;;;0.75;;
11305;SDS011;5708;50.660;6.778;2022-09-09T13:07:19;2.75;;;0.80;;
11305;SDS011;5708;50.660;6.778;2022-09-09T13:09:47;2.70;;;0.80;;
11305;SDS011;5708;50.660;6.778;2022-09-09T13:12:18;6.40;;;1.02;;
11305;SDS011;5708;50.660;6.778;2022-09-09T13:14:46;4.45;;;1.02;;
11305;SDS011;5708;50.660;6.778;2022-09-09T13:17:23;1.90;;;0.40;;
11305;SDS011;5708;50.660;6.778;2022-09-09T13:19:50;2.75;;;0.70;;
11305;SDS011;5708;50.660;6.778;2022-09-09T13:25:05;3.28;;;0.70;;
11305;SDS011;5708;50.660;6.778;2022-09-09T13:27:50;2.80;;;0.90;;
11305;SDS011;5708;50.660;6.778;2022-09-09T13:30:22;2.78;;;0.73;;
11305;SDS011;5708;50.660;6.778;2022-09-09T13:33:29;2.70;;;0.80;;
11305;SDS011;5708;50.660;6.778;2022-09-09T13:38:19;2.35;;;0.60;;
11305;SDS011;5708;50.660;6.778;2022-09-09T13:43:30;2.83;;;0.65;;
11305;SDS011;5708;50.660;6.778;2022-09-09T13:46:00;1.88;;;0.80;;
11305;SDS011;5708;50.660;6.778;2022-09-09T13:48:27;1.67;;;0.55;;
11305;SDS011;5708;50.660;6.778;2022-09-09T13:50:53;3.50;;;0.80;;
11305;SDS011;5708;50.660;6.778;2022-09-09T13:53:30;2.40;;;0.68;;
11305;SDS011;5708;50.660;6.778;2022-09-09T13:55:55;2.85;;;0.57;;
11305;SDS011;5708;50.660;6.778;2022-09-09T13:58:21;3.35;;;0.63;;
11305;SDS011;5708;50.660;6.778;2022-09-09T14:00:48;1.85;;;0.40;;
11305;SDS011;5708;50.660;6.778;2022-09-09T14:03:14;3.97;;;0.80;;
11305;SDS011;5708;50.660;6.778;2022-09-09T14:05:40;3.40;;;0.73;;
11305;SDS011;5708;50.660;6.778;2022-09-09T14:08:06;3.30;;;0.50;;
11305;SDS011;5708;50.660;6.778;2022-09-09T14:10:32;2.45;;;0.55;;
11305;SDS011;5708;50.660;6.778;2022-09-09T14:13:02;2.13;;;0.50;;
11305;SDS011;5708;50.660;6.778;2022-09-09T14:15:27;2.33;;;0.60;;
11305;SDS011;5708;50.660;6.778;2022-09-09T14:17:53;2.65;;;0.63;;
11305;SDS011;5708;50.660;6.778;2022-09-09T14:20:19;5.97;;;1.00;;
11305;SDS011;5708;50.660;6.778;2022-09-09T14:22:45;3.42;;;0.63;;
11305;SDS011;5708;50.660;6.778;2022-09-09T14:25:10;2.20;;;0.60;;
11305;SDS011;5708;50.660;6.778;2022-09-09T14:27:38;2.33;;;0.55;;
11305;SDS011;5708;50.660;6.778;2022-09-09T14:30:04;2.50;;;0.52;;
11305;SDS011;5708;50.660;6.778;2022-09-09T14:32:30;2.28;;;0.60;;
11305;SDS011;5708;50.660;6.778;2022-09-09T14:34:56;2.42;;;0.60;;
11305;SDS011;5708;50.660;6.778;2022-09-09T14:37:21;2.95;;;0.60;;
11305;SDS011;5708;50.660;6.778;2022-09-09T14:39:47;2.92;;;0.80;;
11305;SDS011;5708;50.660;6.778;2022-09-09T14:42:15;2.33;;;0.52;;
11305;SDS011;5708;50.660;6.778;2022-09-09T14:44:40;1.77;;;0.60;;
11305;SDS011;5708;50.660;6.778;2022-09-09T14:47:06;2.70;;;0.50;;
11305;SDS011;5708;50.660;6.778;2022-09-09T14:49:33;3.15;;;0.60;;
11305;SDS011;5708;50.660;6.778;2022-09-09T14:51:58;4.63;;;0.60;;
11305;SDS011;5708;50.660;6.778;2022-09-09T14:54:24;2.60;;;0.60;;
11305;SDS011;5708;50.660;6.778;2022-09-09T14:56:49;3.40;;;0.70;;
11305;SDS011;5708;50.660;6.778;2022-09-09T14:59:15;2.10;;;0.50;;
11305;SDS011;5708;50.660;6.778;2022-09-09T15:01:40;2.10;;;0.47;;
11305;SDS011;5708;50.660;6.778;2022-09-09T15:04:06;4.57;;;0.95;;
11305;SDS011;5708;50.660;6.778;2022-09-09T15:06:32;4.65;;;1.30;;
11305;SDS011;5708;50.660;6.778;2022-09-09T15:08:58;3.38;;;1.13;;
11305;SDS011;5708;50.660;6.778;2022-09-09T15:11:26;6.22;;;1.13;;
11305;SDS011;5708;50.660;6.778;2022-09-09T15:13:55;3.88;;;1.02;;
11305;SDS011;5708;50.660;6.778;2022-09-09T15:16:22;3.40;;;0.90;;
11305;SDS011;5708;50.660;6.778;2022-09-09T15:18:54;5.22;;;2.03;;
11305;SDS011;5708;50.660;6.778;2022-09-09T15:21:22;9.15;;;3.38;;
11305;SDS011;5708;50.660;6.778;2022-09-09T15:23:49;5.85;;;1.33;;
11305;SDS011;5708;50.660;6.778;2022-09-09T15:26:15;4.00;;;1.30;;
11305;SDS011;5708;50.660;6.778;2022-09-09T15:28:42;5.28;;;0.93;;
11305;SDS011;5708;50.660;6.778;2022-09-09T15:31:41;4.22;;;0.70;;
11305;SDS011;5708;50.660;6.778;2022-09-09T15:34:01;2.28;;;0.80;;
11305;SDS011;5708;50.660;6.778;2022-09-09T15:38:58;4.82;;;1.10;;
11305;SDS011;5708;50.660;6.778;2022-09-09T15:41:24;3.47;;;0.93;;
11305;SDS011;5708;50.660;6.778;2022-09-09T15:43:50;4.65;;;1.00;;
11305;SDS011;5708;50.660;6.778;2022-09-09T15:48:42;2.75;;;0.90;;
11305;SDS011;5708;50.660;6.778;2022-09-09T15:51:11;4.05;;;0.90;;
11305;SDS011;5708;50.660;6.778;2022-09-09T15:53:38;3.65;;;1.00;;
11305;SDS011;5708;50.660;6.778;2022-09-09T15:56:04;3.72;;;0.70;;
11305;SDS011;5708;50.660;6.778;2022-09-09T15:58:31;2.92;;;0.73;;
11305;SDS011;5708;50.660;6.778;2022-09-09T16:01:15;3.60;;;0.70;;
11305;SDS011;5708;50.660;6.778;2022-09-09T16:03:42;2.53;;;0.73;;
11305;SDS011;5708;50.660;6.778;2022-09-09T16:06:08;1.77;;;0.70;;
11305;SDS011;5708;50.660;6.778;2022-09-09T16:08:34;2.60;;;0.63;;
11305;SDS011;5708;50.660;6.778;2022-09-09T16:11:19;1.92;;;0.70;;
11305;SDS011;5708;50.660;6.778;2022-09-09T16:13:49;3.65;;;0.80;;
11305;SDS011;5708;50.660;6.778;2022-09-09T16:16:16;1.60;;;0.85;;
11305;SDS011;5708;50.660;6.778;2022-09-09T16:18:48;4.25;;;1.23;;
11305;SDS011;5708;50.660;6.778;2022-09-09T16:21:18;4.40;;;1.65;;
11305;SDS011;5708;50.660;6.778;2022-09-09T16:23:46;5.22;;;1.50;;
11305;SDS011;5708;50.660;6.778;2022-09-09T16:26:12;3.75;;;1.00;;
11305;SDS011;5708;50.660;6.778;2022-09-09T16:28:39;2.88;;;0.70;;
11305;SDS011;5708;50.660;6.778;2022-09-09T16:31:05;1.92;;;0.70;;
11305;SDS011;5708;50.660;6.778;2022-09-09T16:33:31;4.72;;;1.20;;
11305;SDS011;5708;50.660;6.778;2022-09-09T16:35:56;2.50;;;0.90;;
11305;SDS011;5708;50.660;6.778;2022-09-09T16:38:22;4.13;;;1.15;;
11305;SDS011;5708;50.660;6.778;2022-09-09T16:40:47;3.83;;;1.08;;
11305;SDS011;5708;50.660;6.778;2022-09-09T16:43:15;4.60;;;1.05;;
11305;SDS011;5708;50.660;6.778;2022-09-09T16:45:41;4.40;;;1.42;;
11305;SDS011;5708;50.660;6.778;2022-09-09T16:48:10;6.90;;;1.80;;
11305;SDS011;5708;50.660;6.778;2022-09-09T16:50:35;3.75;;;1.48;;
11305;SDS011;5708;50.660;6.778;2022-09-09T16:53:01;3.50;;;1.08;;
11305;SDS011;5708;50.660;6.778;2022-09-09T16:55:31;4.85;;;1.30;;
11305;SDS011;5708;50.660;6.778;2022-09-09T16:57:57;5.85;;;1.40;;
11305;SDS011;5708;50.660;6.778;2022-09-09T17:00:22;4.82;;;1.65;;
11305;SDS011;5708;50.660;6.778;2022-09-09T17:02:48;3.42;;;0.90;;
11305;SDS011;5708;50.660;6.778;2022-09-09T17:05:13;4.88;;;1.13;;
11305;SDS011;5708;50.660;6.778;2022-09-09T17:07:39;2.40;;;0.90;;
11305;SDS011;5708;50.660;6.778;2022-09-09T17:10:05;3.47;;;0.90;;
11305;SDS011;5708;50.660;6.778;2022-09-09T17:12:31;3.72;;;0.93;;
11305;SDS011;5708;50.660;6.778;2022-09-09T17:15:00;2.50;;;0.73;;
11305;SDS011;5708;50.660;6.778;2022-09-09T17:17:28;4.70;;;0.90;;
11305;SDS011;5708;50.660;6.778;2022-09-09T17:19:53;3.65;;;1.05;;
11305;SDS011;5708;50.660;6.778;2022-09-09T17:22:18;2.97;;;1.10;;
11305;SDS011;5708;50.660;6.778;2022-09-09T17:24:45;4.85;;;1.08;;
11305;SDS011;5708;50.660;6.778;2022-09-09T17:27:10;3.85;;;1.00;;
11305;SDS011;5708;50.660;6.778;2022-09-09T17:29:37;3.50;;;1.13;;
11305;SDS011;5708;50.660;6.778;2022-09-09T17:32:03;3.00;;;0.95;;
11305;SDS011;5708;50.660;6.778;2022-09-09T17:34:30;5.65;;;1.05;;
11305;SDS011;5708;50.660;6.778;2022-09-09T17:36:55;2.83;;;0.95;;
11305;SDS011;5708;50.660;6.778;2022-09-09T17:39:21;2.13;;;0.68;;